sensor_id;sensor_type;location;lat;lon;timestamp;pressure;altitude;pressure_sealevel;temperature;humidity
967;BME280;56108;48.730;9.304;2023-03-22T00:00:27;97427.78;;;9.22;100.00
967;BME280;56108;48.730;9.304;2023-03-22T00:02:35;97425.13;;;9.22;100.00
967;BME280;56108;48.730;9.304;2023-03-22T00:04:45;97435.59;;;9.10;100.00
967;BME280;56108;48.730;9.304;2023-03-22T00:06:53;97426.44;;;9.02;100.00
967;BME280;56108;48.730;9.304;2023-03-22T00:09:01;97428.75;;;8.94;100.00
967;BME280;56108;48.730;9.304;2023-03-22T00:11:10;97430.31;;;8.83;100.00
967;BME280;56108;48.730;9.304;2023-03-22T00:13:18;97427.41;;;8.74;100.00
967;BME280;56108;48.730;9.304;2023-03-22T00:15:26;97430.06;;;8.74;100.00
967;BME280;56108;48.730;9.304;2023-03-22T00:17:34;97425.47;;;8.76;100.00
967;BME280;56108;48.730;9.304;2023-03-22T00:19:45;97428.13;;;8.76;100.00
967;BME280;56108;48.730;9.304;2023-03-22T00:21:53;97425.88;;;8.70;100.00
967;BME280;56108;48.730;9.304;2023-03-22T00:24:02;97427.28;;;8.75;100.00
967;BME280;56108;48.730;9.304;2023-03-22T00:26:11;97427.44;;;8.86;100.00
967;BME280;56108;48.730;9.304;2023-03-22T00:28:21;97426.34;;;9.03;100.00
967;BME280;56108;48.730;9.304;2023-03-22T00:30:29;97416.28;;;9.08;100.00
967;BME280;56108;48.730;9.304;2023-03-22T00:32:37;97421.91;;;9.17;100.00
967;BME280;56108;48.730;9.304;2023-03-22T00:34:48;97416.72;;;9.15;100.00
967;BME280;56108;48.730;9.304;2023-03-22T00:36:56;97418.41;;;9.16;100.00
967;BME280;56108;48.730;9.304;2023-03-22T00:39:05;97413.94;;;9.17;100.00
967;BME280;56108;48.730;9.304;2023-03-22T00:41:14;97416.78;;;9.01;100.00
967;BME280;56108;48.730;9.304;2023-03-22T00:43:23;97406.97;;;8.88;100.00
967;BME280;56108;48.730;9.304;2023-03-22T00:45:31;97411.91;;;8.80;100.00
967;BME280;56108;48.730;9.304;2023-03-22T00:47:40;97410.63;;;8.73;100.00
967;BME280;56108;48.730;9.304;2023-03-22T00:49:50;97399.88;;;8.62;100.00
967;BME280;56108;48.730;9.304;2023-03-22T00:51:58;97407.63;;;8.51;100.00
967;BME280;56108;48.730;9.304;2023-03-22T00:54:06;97401.25;;;8.41;100.00
967;BME280;56108;48.730;9.304;2023-03-22T00:56:14;97396.25;;;8.36;100.00
967;BME280;56108;48.730;9.304;2023-03-22T00:58:47;97397.09;;;8.36;100.00
967;BME280;56108;48.730;9.304;2023-03-22T01:00:55;97398.81;;;8.65;100.00
967;BME280;56108;48.730;9.304;2023-03-22T01:03:04;97398.78;;;8.92;100.00
967;BME280;56108;48.730;9.304;2023-03-22T01:05:15;97394.41;;;8.78;100.00
967;BME280;56108;48.730;9.304;2023-03-22T01:07:25;97397.84;;;8.66;100.00
967;BME280;56108;48.730;9.304;2023-03-22T01:09:33;97401.31;;;8.53;100.00
967;BME280;56108;48.730;9.304;2023-03-22T01:11:42;97390.50;;;8.56;100.00
967;BME280;56108;48.730;9.304;2023-03-22T01:13:51;97396.56;;;8.58;100.00
967;BME280;56108;48.730;9.304;2023-03-22T01:15:59;97392.00;;;8.60;100.00
967;BME280;56108;48.730;9.304;2023-03-22T01:18:08;97391.63;;;8.67;100.00
967;BME280;56108;48.730;9.304;2023-03-22T01:20:19;97383.84;;;8.63;100.00
967;BME280;56108;48.730;9.304;2023-03-22T01:22:27;97383.56;;;8.68;100.00
967;BME280;56108;48.730;9.304;2023-03-22T01:24:35;97386.94;;;8.70;100.00
967;BME280;56108;48.730;9.304;2023-03-22T01:26:43;97379.81;;;8.71;100.00
967;BME280;56108;48.730;9.304;2023-03-22T01:28:51;97380.25;;;8.65;100.00
967;BME280;56108;48.730;9.304;2023-03-22T01:31:00;97370.13;;;8.57;100.00
967;BME280;56108;48.730;9.304;2023-03-22T01:33:08;97368.63;;;8.53;100.00
967;BME280;56108;48.730;9.304;2023-03-22T01:35:19;97365.91;;;8.40;100.00
967;BME280;56108;48.730;9.304;2023-03-22T01:37:27;97367.72;;;8.40;100.00
967;BME280;56108;48.730;9.304;2023-03-22T01:39:36;97357.03;;;8.27;100.00
967;BME280;56108;48.730;9.304;2023-03-22T01:41:47;97349.16;;;8.40;100.00
967;BME280;56108;48.730;9.304;2023-03-22T01:44:17;97360.81;;;8.23;100.00
967;BME280;56108;48.730;9.304;2023-03-22T01:46:29;97347.94;;;8.17;100.00
967;BME280;56108;48.730;9.304;2023-03-22T01:48:39;97353.94;;;8.06;100.00
967;BME280;56108;48.730;9.304;2023-03-22T01:50:59;97345.88;;;7.93;100.00
967;BME280;56108;48.730;9.304;2023-03-22T01:53:15;97342.59;;;7.75;100.00
967;BME280;56108;48.730;9.304;2023-03-22T01:55:28;97332.78;;;7.63;100.00
967;BME280;56108;48.730;9.304;2023-03-22T01:57:50;97334.94;;;7.71;100.00
967;BME280;56108;48.730;9.304;2023-03-22T02:00:13;97336.34;;;7.62;100.00
967;BME280;56108;48.730;9.304;2023-03-22T02:02:42;97336.84;;;7.54;100.00
967;BME280;56108;48.730;9.304;2023-03-22T02:05:00;97330.88;;;7.65;100.00
967;BME280;56108;48.730;9.304;2023-03-22T02:07:14;97334.84;;;7.72;100.00
967;BME280;56108;48.730;9.304;2023-03-22T02:09:32;97336.75;;;7.70;100.00
967;BME280;56108;48.730;9.304;2023-03-22T02:11:48;97333.06;;;7.73;100.00
967;BME280;56108;48.730;9.304;2023-03-22T02:14:12;97331.72;;;7.66;100.00
967;BME280;56108;48.730;9.304;2023-03-22T02:16:57;97327.19;;;7.53;100.00
967;BME280;56108;48.730;9.304;2023-03-22T02:22:20;97321.31;;;7.77;100.00
967;BME280;56108;48.730;9.304;2023-03-22T02:24:53;97315.34;;;7.88;100.00
967;BME280;56108;48.730;9.304;2023-03-22T02:27:26;97320.94;;;7.69;100.00
967;BME280;56108;48.730;9.304;2023-03-22T02:29:41;97321.97;;;7.66;100.00
967;BME280;56108;48.730;9.304;2023-03-22T02:32:03;97320.47;;;7.76;100.00
967;BME280;56108;48.730;9.304;2023-03-22T02:39:39;97303.25;;;7.41;100.00
967;BME280;56108;48.730;9.304;2023-03-22T02:42:06;97299.41;;;7.32;100.00
967;BME280;56108;48.730;9.304;2023-03-22T02:44:23;97294.66;;;7.37;100.00
967;BME280;56108;48.730;9.304;2023-03-22T02:46:36;97300.81;;;7.38;100.00
967;BME280;56108;48.730;9.304;2023-03-22T02:48:52;97309.97;;;7.18;100.00
967;BME280;56108;48.730;9.304;2023-03-22T02:51:05;97307.75;;;6.96;100.00
967;BME280;56108;48.730;9.304;2023-03-22T02:53:19;97299.41;;;6.88;100.00
967;BME280;56108;48.730;9.304;2023-03-22T02:55:35;97292.47;;;7.01;100.00
967;BME280;56108;48.730;9.304;2023-03-22T02:57:47;97293.78;;;7.08;100.00
967;BME280;56108;48.730;9.304;2023-03-22T02:59:58;97291.03;;;7.10;100.00
967;BME280;56108;48.730;9.304;2023-03-22T03:02:10;97294.53;;;6.96;100.00
967;BME280;56108;48.730;9.304;2023-03-22T03:04:26;97287.88;;;6.89;100.00
967;BME280;56108;48.730;9.304;2023-03-22T03:06:36;97295.44;;;6.80;100.00
967;BME280;56108;48.730;9.304;2023-03-22T03:08:50;97289.56;;;6.75;100.00
967;BME280;56108;48.730;9.304;2023-03-22T03:11:07;97293.22;;;6.73;100.00
967;BME280;56108;48.730;9.304;2023-03-22T03:13:16;97288.34;;;6.81;100.00
967;BME280;56108;48.730;9.304;2023-03-22T03:15:25;97279.38;;;6.84;100.00
967;BME280;56108;48.730;9.304;2023-03-22T03:17:49;97275.88;;;6.83;100.00
967;BME280;56108;48.730;9.304;2023-03-22T03:20:09;97281.53;;;6.77;100.00
967;BME280;56108;48.730;9.304;2023-03-22T03:22:35;97285.50;;;6.70;100.00
967;BME280;56108;48.730;9.304;2023-03-22T03:24:49;97280.31;;;6.68;100.00
967;BME280;56108;48.730;9.304;2023-03-22T03:27:06;97283.13;;;6.65;100.00
967;BME280;56108;48.730;9.304;2023-03-22T03:29:21;97276.41;;;6.60;100.00
967;BME280;56108;48.730;9.304;2023-03-22T03:31:37;97280.16;;;6.56;100.00
967;BME280;56108;48.730;9.304;2023-03-22T03:33:56;97281.47;;;6.48;100.00
967;BME280;56108;48.730;9.304;2023-03-22T03:36:08;97278.31;;;6.42;100.00
967;BME280;56108;48.730;9.304;2023-03-22T03:38:20;97281.03;;;6.40;100.00
967;BME280;56108;48.730;9.304;2023-03-22T03:40:32;97277.66;;;6.38;100.00
967;BME280;56108;48.730;9.304;2023-03-22T03:42:48;97269.53;;;6.41;100.00
967;BME280;56108;48.730;9.304;2023-03-22T03:44:57;97272.94;;;6.43;100.00
967;BME280;56108;48.730;9.304;2023-03-22T03:47:10;97272.13;;;6.27;100.00
967;BME280;56108;48.730;9.304;2023-03-22T03:49:21;97272.47;;;6.21;100.00
967;BME280;56108;48.730;9.304;2023-03-22T03:51:32;97276.25;;;6.17;100.00
967;BME280;56108;48.730;9.304;2023-03-22T03:53:40;97277.44;;;6.11;100.00
967;BME280;56108;48.730;9.304;2023-03-22T03:55:48;97278.66;;;6.06;100.00
967;BME280;56108;48.730;9.304;2023-03-22T03:57:59;97277.34;;;6.13;100.00
967;BME280;56108;48.730;9.304;2023-03-22T04:00:08;97282.97;;;6.22;100.00
967;BME280;56108;48.730;9.304;2023-03-22T04:02:25;97286.56;;;6.21;100.00
967;BME280;56108;48.730;9.304;2023-03-22T04:04:36;97279.28;;;6.25;100.00
967;BME280;56108;48.730;9.304;2023-03-22T04:06:43;97282.69;;;6.27;100.00
967;BME280;56108;48.730;9.304;2023-03-22T04:08:56;97291.06;;;6.19;100.00
967;BME280;56108;48.730;9.304;2023-03-22T04:11:09;97286.88;;;6.15;100.00
967;BME280;56108;48.730;9.304;2023-03-22T04:13:21;97281.94;;;6.09;100.00
967;BME280;56108;48.730;9.304;2023-03-22T04:15:34;97284.94;;;6.03;100.00
967;BME280;56108;48.730;9.304;2023-03-22T04:17:45;97273.59;;;5.85;100.00
967;BME280;56108;48.730;9.304;2023-03-22T04:19:54;97272.31;;;5.76;100.00
967;BME280;56108;48.730;9.304;2023-03-22T04:22:03;97266.84;;;5.64;100.00
967;BME280;56108;48.730;9.304;2023-03-22T04:24:11;97261.72;;;5.61;100.00
967;BME280;56108;48.730;9.304;2023-03-22T04:26:22;97267.16;;;5.58;100.00
967;BME280;56108;48.730;9.304;2023-03-22T04:28:51;97265.97;;;5.47;100.00
967;BME280;56108;48.730;9.304;2023-03-22T04:30:59;97256.34;;;5.46;100.00
967;BME280;56108;48.730;9.304;2023-03-22T04:33:24;97260.19;;;5.41;100.00
967;BME280;56108;48.730;9.304;2023-03-22T04:35:42;97251.56;;;5.37;100.00
967;BME280;56108;48.730;9.304;2023-03-22T04:37:51;97249.63;;;5.41;100.00
967;BME280;56108;48.730;9.304;2023-03-22T04:39:59;97245.13;;;5.43;100.00
967;BME280;56108;48.730;9.304;2023-03-22T04:42:24;97250.41;;;5.43;100.00
967;BME280;56108;48.730;9.304;2023-03-22T04:45:01;97246.41;;;5.52;100.00
967;BME280;56108;48.730;9.304;2023-03-22T04:47:11;97246.31;;;5.53;100.00
967;BME280;56108;48.730;9.304;2023-03-22T04:49:19;97243.84;;;5.50;100.00
967;BME280;56108;48.730;9.304;2023-03-22T04:51:27;97243.84;;;5.50;100.00
967;BME280;56108;48.730;9.304;2023-03-22T04:53:49;97248.19;;;5.51;100.00
967;BME280;56108;48.730;9.304;2023-03-22T04:55:57;97246.66;;;5.47;100.00
967;BME280;56108;48.730;9.304;2023-03-22T04:58:07;97244.78;;;5.49;100.00
967;BME280;56108;48.730;9.304;2023-03-22T05:00:18;97253.81;;;5.45;100.00
967;BME280;56108;48.730;9.304;2023-03-22T05:02:27;97248.09;;;5.53;100.00
967;BME280;56108;48.730;9.304;2023-03-22T05:04:36;97244.59;;;5.52;100.00
967;BME280;56108;48.730;9.304;2023-03-22T05:06:53;97250.72;;;5.53;100.00
967;BME280;56108;48.730;9.304;2023-03-22T05:09:08;97245.28;;;5.56;100.00
967;BME280;56108;48.730;9.304;2023-03-22T05:11:18;97238.66;;;5.48;100.00
967;BME280;56108;48.730;9.304;2023-03-22T05:13:48;97234.84;;;5.54;100.00
967;BME280;56108;48.730;9.304;2023-03-22T05:15:58;97229.97;;;5.62;100.00
967;BME280;56108;48.730;9.304;2023-03-22T05:18:15;97225.72;;;5.44;100.00
967;BME280;56108;48.730;9.304;2023-03-22T05:20:24;97220.09;;;5.34;100.00
967;BME280;56108;48.730;9.304;2023-03-22T05:22:43;97219.50;;;5.29;100.00
967;BME280;56108;48.730;9.304;2023-03-22T05:24:55;97219.59;;;5.28;100.00
967;BME280;56108;48.730;9.304;2023-03-22T05:27:04;97209.69;;;5.31;100.00
967;BME280;56108;48.730;9.304;2023-03-22T05:29:12;97211.06;;;5.38;100.00
967;BME280;56108;48.730;9.304;2023-03-22T05:31:45;97219.75;;;5.40;100.00
967;BME280;56108;48.730;9.304;2023-03-22T05:33:53;97227.91;;;5.36;100.00
967;BME280;56108;48.730;9.304;2023-03-22T05:36:05;97229.94;;;5.31;100.00
967;BME280;56108;48.730;9.304;2023-03-22T05:38:25;97226.63;;;5.27;100.00
967;BME280;56108;48.730;9.304;2023-03-22T05:40:36;97225.28;;;5.36;100.00
967;BME280;56108;48.730;9.304;2023-03-22T05:42:45;97221.69;;;5.37;100.00
967;BME280;56108;48.730;9.304;2023-03-22T05:45:00;97231.16;;;5.41;100.00
967;BME280;56108;48.730;9.304;2023-03-22T05:47:10;97235.25;;;5.46;100.00
967;BME280;56108;48.730;9.304;2023-03-22T05:49:40;97234.91;;;5.53;100.00
967;BME280;56108;48.730;9.304;2023-03-22T05:51:47;97237.03;;;5.62;100.00
967;BME280;56108;48.730;9.304;2023-03-22T05:53:58;97248.63;;;5.59;100.00
967;BME280;56108;48.730;9.304;2023-03-22T05:56:13;97247.50;;;5.47;100.00
967;BME280;56108;48.730;9.304;2023-03-22T05:58:23;97257.75;;;5.54;100.00
967;BME280;56108;48.730;9.304;2023-03-22T06:00:32;97257.31;;;5.61;100.00
967;BME280;56108;48.730;9.304;2023-03-22T06:03:02;97259.19;;;5.59;100.00
967;BME280;56108;48.730;9.304;2023-03-22T06:05:16;97262.75;;;5.58;100.00
967;BME280;56108;48.730;9.304;2023-03-22T06:07:26;97258.41;;;5.57;100.00
967;BME280;56108;48.730;9.304;2023-03-22T06:09:44;97257.47;;;5.58;100.00
967;BME280;56108;48.730;9.304;2023-03-22T06:11:59;97252.63;;;5.66;100.00
967;BME280;56108;48.730;9.304;2023-03-22T06:14:07;97263.78;;;5.71;100.00
967;BME280;56108;48.730;9.304;2023-03-22T06:16:37;97265.72;;;5.84;100.00
967;BME280;56108;48.730;9.304;2023-03-22T06:18:48;97278.72;;;6.04;100.00
967;BME280;56108;48.730;9.304;2023-03-22T06:20:56;97281.78;;;6.58;100.00
967;BME280;56108;48.730;9.304;2023-03-22T06:23:04;97290.38;;;7.06;100.00
967;BME280;56108;48.730;9.304;2023-03-22T06:25:14;97307.88;;;7.80;100.00
967;BME280;56108;48.730;9.304;2023-03-22T06:27:23;97320.50;;;8.72;100.00
967;BME280;56108;48.730;9.304;2023-03-22T06:29:31;97324.47;;;10.19;100.00
967;BME280;56108;48.730;9.304;2023-03-22T06:31:42;97319.94;;;11.62;89.89
967;BME280;56108;48.730;9.304;2023-03-22T06:33:54;97332.06;;;13.09;75.26
967;BME280;56108;48.730;9.304;2023-03-22T06:36:09;97369.75;;;14.10;65.37
967;BME280;56108;48.730;9.304;2023-03-22T06:38:35;97383.69;;;15.91;59.88
967;BME280;56108;48.730;9.304;2023-03-22T06:40:44;97399.47;;;16.04;55.81
967;BME280;56108;48.730;9.304;2023-03-22T06:42:52;97405.66;;;16.24;53.50
967;BME280;56108;48.730;9.304;2023-03-22T06:45:02;97421.59;;;17.35;51.22
967;BME280;56108;48.730;9.304;2023-03-22T06:47:15;97427.44;;;17.48;49.65
967;BME280;56108;48.730;9.304;2023-03-22T06:49:45;97418.50;;;18.02;49.87
967;BME280;56108;48.730;9.304;2023-03-22T06:51:59;97429.50;;;17.90;49.05
967;BME280;56108;48.730;9.304;2023-03-22T06:54:08;97429.91;;;18.21;48.08
967;BME280;56108;48.730;9.304;2023-03-22T06:56:17;97454.75;;;18.93;45.14
967;BME280;56108;48.730;9.304;2023-03-22T06:58:29;97445.00;;;18.40;46.12
967;BME280;56108;48.730;9.304;2023-03-22T07:00:37;97451.03;;;19.45;45.59
967;BME280;56108;48.730;9.304;2023-03-22T07:02:46;97475.19;;;21.16;41.35
967;BME280;56108;48.730;9.304;2023-03-22T07:05:11;97478.72;;;22.48;38.22
967;BME280;56108;48.730;9.304;2023-03-22T07:07:19;97495.81;;;23.01;37.12
967;BME280;56108;48.730;9.304;2023-03-22T07:09:27;97489.19;;;23.18;35.91
967;BME280;56108;48.730;9.304;2023-03-22T07:11:36;97458.56;;;23.60;35.31
967;BME280;56108;48.730;9.304;2023-03-22T07:13:45;97454.66;;;23.84;34.67
967;BME280;56108;48.730;9.304;2023-03-22T07:15:59;97428.03;;;24.23;33.82
967;BME280;56108;48.730;9.304;2023-03-22T07:18:31;97425.94;;;24.46;33.67
967;BME280;56108;48.730;9.304;2023-03-22T07:20:42;97411.69;;;25.13;32.10
967;BME280;56108;48.730;9.304;2023-03-22T07:22:50;97406.47;;;25.12;32.08
967;BME280;56108;48.730;9.304;2023-03-22T07:25:00;97408.16;;;26.00;30.72
967;BME280;56108;48.730;9.304;2023-03-22T07:27:10;97410.72;;;26.42;29.81
967;BME280;56108;48.730;9.304;2023-03-22T07:29:18;97407.28;;;26.66;29.54
967;BME280;56108;48.730;9.304;2023-03-22T07:31:26;97419.25;;;27.43;29.18
967;BME280;56108;48.730;9.304;2023-03-22T07:33:41;97418.41;;;27.43;28.36
967;BME280;56108;48.730;9.304;2023-03-22T07:35:51;97414.31;;;27.14;28.84
967;BME280;56108;48.730;9.304;2023-03-22T07:38:00;97407.09;;;28.34;27.28
967;BME280;56108;48.730;9.304;2023-03-22T07:40:10;97417.63;;;28.37;26.10
967;BME280;56108;48.730;9.304;2023-03-22T07:42:18;97410.19;;;26.78;28.08
967;BME280;56108;48.730;9.304;2023-03-22T07:45:06;97410.69;;;24.52;30.95
967;BME280;56108;48.730;9.304;2023-03-22T07:47:20;97397.81;;;22.22;33.96
967;BME280;56108;48.730;9.304;2023-03-22T07:50:03;97385.81;;;19.74;39.18
967;BME280;56108;48.730;9.304;2023-03-22T07:52:15;97379.97;;;18.35;42.91
967;BME280;56108;48.730;9.304;2023-03-22T07:54:24;97379.44;;;17.80;43.65
967;BME280;56108;48.730;9.304;2023-03-22T07:56:38;97376.19;;;17.14;45.13
967;BME280;56108;48.730;9.304;2023-03-22T07:58:49;97374.06;;;16.35;46.66
967;BME280;56108;48.730;9.304;2023-03-22T08:00:57;97357.41;;;15.95;48.97
967;BME280;56108;48.730;9.304;2023-03-22T08:03:35;97359.91;;;15.30;49.07
967;BME280;56108;48.730;9.304;2023-03-22T08:06:00;97362.41;;;14.83;50.63
967;BME280;56108;48.730;9.304;2023-03-22T08:08:14;97368.19;;;14.78;52.10
967;BME280;56108;48.730;9.304;2023-03-22T08:10:23;97369.81;;;14.60;51.29
967;BME280;56108;48.730;9.304;2023-03-22T08:12:34;97363.22;;;14.33;50.79
967;BME280;56108;48.730;9.304;2023-03-22T08:14:58;97369.38;;;13.94;51.92
967;BME280;56108;48.730;9.304;2023-03-22T08:17:07;97359.53;;;13.43;54.55
967;BME280;56108;48.730;9.304;2023-03-22T08:19:15;97360.53;;;13.51;55.14
967;BME280;56108;48.730;9.304;2023-03-22T08:21:24;97356.78;;;13.33;55.72
967;BME280;56108;48.730;9.304;2023-03-22T08:23:36;97358.00;;;13.29;55.48
967;BME280;56108;48.730;9.304;2023-03-22T08:25:49;97362.97;;;13.34;55.92
967;BME280;56108;48.730;9.304;2023-03-22T08:27:58;97362.19;;;13.11;55.94
967;BME280;56108;48.730;9.304;2023-03-22T08:30:07;97360.91;;;12.94;57.17
967;BME280;56108;48.730;9.304;2023-03-22T08:32:16;97363.25;;;12.87;58.47
967;BME280;56108;48.730;9.304;2023-03-22T08:34:24;97353.97;;;13.02;58.52
967;BME280;56108;48.730;9.304;2023-03-22T08:36:32;97357.28;;;12.95;59.32
967;BME280;56108;48.730;9.304;2023-03-22T08:38:44;97355.88;;;13.12;58.27
967;BME280;56108;48.730;9.304;2023-03-22T08:40:55;97350.06;;;13.06;59.37
967;BME280;56108;48.730;9.304;2023-03-22T08:43:03;97340.59;;;13.02;58.35
967;BME280;56108;48.730;9.304;2023-03-22T08:45:12;97340.38;;;12.94;59.14
967;BME280;56108;48.730;9.304;2023-03-22T08:47:30;97337.25;;;12.89;59.62
967;BME280;56108;48.730;9.304;2023-03-22T08:49:40;97338.06;;;13.01;61.31
967;BME280;56108;48.730;9.304;2023-03-22T08:51:55;97341.84;;;13.19;60.08
967;BME280;56108;48.730;9.304;2023-03-22T08:54:20;97344.44;;;13.21;59.49
967;BME280;56108;48.730;9.304;2023-03-22T08:56:28;97346.47;;;13.28;59.40
967;BME280;56108;48.730;9.304;2023-03-22T08:58:48;97346.22;;;13.20;58.34
967;BME280;56108;48.730;9.304;2023-03-22T09:01:16;97337.28;;;13.21;60.71
967;BME280;56108;48.730;9.304;2023-03-22T09:03:29;97336.19;;;13.13;60.41
967;BME280;56108;48.730;9.304;2023-03-22T09:05:37;97330.97;;;13.11;60.27
967;BME280;56108;48.730;9.304;2023-03-22T09:07:45;97331.94;;;13.21;62.51
967;BME280;56108;48.730;9.304;2023-03-22T09:10:06;97327.50;;;13.31;61.59
967;BME280;56108;48.730;9.304;2023-03-22T09:12:18;97326.84;;;13.39;61.68
967;BME280;56108;48.730;9.304;2023-03-22T09:14:26;97328.41;;;13.63;61.81
967;BME280;56108;48.730;9.304;2023-03-22T09:16:35;97331.91;;;13.84;59.97
967;BME280;56108;48.730;9.304;2023-03-22T09:18:44;97327.28;;;13.65;59.99
967;BME280;56108;48.730;9.304;2023-03-22T09:20:54;97324.44;;;13.88;60.78
967;BME280;56108;48.730;9.304;2023-03-22T09:23:08;97325.47;;;13.96;60.67
967;BME280;56108;48.730;9.304;2023-03-22T09:25:19;97329.53;;;14.21;58.59
967;BME280;56108;48.730;9.304;2023-03-22T09:27:29;97340.38;;;14.29;58.35
967;BME280;56108;48.730;9.304;2023-03-22T09:29:37;97337.97;;;14.57;58.06
967;BME280;56108;48.730;9.304;2023-03-22T09:31:51;97330.97;;;14.95;55.87
967;BME280;56108;48.730;9.304;2023-03-22T09:34:07;97322.75;;;16.01;53.62
967;BME280;56108;48.730;9.304;2023-03-22T09:36:16;97328.94;;;16.94;49.56
967;BME280;56108;48.730;9.304;2023-03-22T09:38:24;97338.47;;;18.12;47.85
967;BME280;56108;48.730;9.304;2023-03-22T09:40:39;97339.53;;;19.77;44.19
967;BME280;56108;48.730;9.304;2023-03-22T09:42:51;97337.91;;;20.79;41.70
967;BME280;56108;48.730;9.304;2023-03-22T09:45:02;97339.81;;;20.70;40.41
967;BME280;56108;48.730;9.304;2023-03-22T09:47:14;97339.81;;;21.70;38.67
967;BME280;56108;48.730;9.304;2023-03-22T09:49:25;97351.91;;;22.64;36.09
967;BME280;56108;48.730;9.304;2023-03-22T09:51:48;97346.75;;;22.55;37.73
967;BME280;56108;48.730;9.304;2023-03-22T09:53:56;97345.38;;;22.59;36.41
967;BME280;56108;48.730;9.304;2023-03-22T09:58:24;97343.41;;;23.18;36.85
967;BME280;56108;48.730;9.304;2023-03-22T10:00:39;97344.22;;;22.83;36.03
967;BME280;56108;48.730;9.304;2023-03-22T10:02:56;97343.84;;;23.22;35.75
967;BME280;56108;48.730;9.304;2023-03-22T10:05:16;97338.13;;;22.81;35.58
967;BME280;56108;48.730;9.304;2023-03-22T10:07:29;97325.00;;;23.35;36.86
967;BME280;56108;48.730;9.304;2023-03-22T10:09:45;97325.63;;;23.80;34.57
967;BME280;56108;48.730;9.304;2023-03-22T10:12:04;97323.19;;;24.13;35.40
967;BME280;56108;48.730;9.304;2023-03-22T10:14:27;97316.47;;;23.60;35.43
967;BME280;56108;48.730;9.304;2023-03-22T10:16:37;97318.22;;;23.67;33.52
967;BME280;56108;48.730;9.304;2023-03-22T10:18:49;97303.06;;;23.58;34.09
967;BME280;56108;48.730;9.304;2023-03-22T10:21:00;97308.28;;;22.30;35.61
967;BME280;56108;48.730;9.304;2023-03-22T10:23:13;97306.53;;;22.73;36.33
967;BME280;56108;48.730;9.304;2023-03-22T10:25:26;97302.06;;;23.87;35.85
967;BME280;56108;48.730;9.304;2023-03-22T10:27:40;97304.31;;;23.13;34.88
967;BME280;56108;48.730;9.304;2023-03-22T10:29:50;97290.50;;;22.27;36.23
967;BME280;56108;48.730;9.304;2023-03-22T10:32:12;97288.22;;;21.72;37.80
967;BME280;56108;48.730;9.304;2023-03-22T10:34:22;97278.19;;;21.11;39.23
967;BME280;56108;48.730;9.304;2023-03-22T10:36:33;97275.00;;;21.08;39.41
967;BME280;56108;48.730;9.304;2023-03-22T10:38:45;97276.91;;;21.22;40.53
967;BME280;56108;48.730;9.304;2023-03-22T10:40:56;97278.19;;;21.87;37.74
967;BME280;56108;48.730;9.304;2023-03-22T10:43:13;97283.09;;;22.51;36.70
967;BME280;56108;48.730;9.304;2023-03-22T10:45:25;97284.91;;;22.14;36.69
967;BME280;56108;48.730;9.304;2023-03-22T10:47:37;97279.72;;;21.89;37.21
967;BME280;56108;48.730;9.304;2023-03-22T10:49:51;97278.81;;;22.27;36.42
967;BME280;56108;48.730;9.304;2023-03-22T10:52:02;97274.47;;;22.62;35.07
967;BME280;56108;48.730;9.304;2023-03-22T10:54:12;97283.69;;;22.31;34.65
967;BME280;56108;48.730;9.304;2023-03-22T10:56:20;97272.09;;;22.23;36.62
967;BME280;56108;48.730;9.304;2023-03-22T10:58:32;97271.78;;;22.32;36.20
967;BME280;56108;48.730;9.304;2023-03-22T11:00:46;97269.44;;;21.85;35.97
967;BME280;56108;48.730;9.304;2023-03-22T11:02:58;97267.41;;;22.31;36.44
967;BME280;56108;48.730;9.304;2023-03-22T11:05:16;97264.53;;;21.28;37.56
967;BME280;56108;48.730;9.304;2023-03-22T11:07:30;97259.66;;;21.00;38.00
967;BME280;56108;48.730;9.304;2023-03-22T11:09:38;97256.34;;;20.90;38.80
967;BME280;56108;48.730;9.304;2023-03-22T11:11:49;97257.19;;;20.28;39.69
967;BME280;56108;48.730;9.304;2023-03-22T11:14:05;97250.50;;;20.16;40.67
967;BME280;56108;48.730;9.304;2023-03-22T11:16:16;97244.75;;;19.64;40.32
967;BME280;56108;48.730;9.304;2023-03-22T11:18:28;97243.75;;;19.32;39.73
967;BME280;56108;48.730;9.304;2023-03-22T11:20:39;97237.19;;;19.26;43.15
967;BME280;56108;48.730;9.304;2023-03-22T11:22:49;97236.47;;;19.49;41.36
967;BME280;56108;48.730;9.304;2023-03-22T11:25:01;97231.25;;;19.23;40.16
967;BME280;56108;48.730;9.304;2023-03-22T11:27:22;97231.41;;;19.46;40.47
967;BME280;56108;48.730;9.304;2023-03-22T11:29:43;97223.31;;;19.38;40.15
967;BME280;56108;48.730;9.304;2023-03-22T11:31:54;97224.19;;;19.22;41.08
967;BME280;56108;48.730;9.304;2023-03-22T11:34:02;97225.53;;;19.10;41.13
967;BME280;56108;48.730;9.304;2023-03-22T11:36:15;97222.16;;;18.91;40.21
967;BME280;56108;48.730;9.304;2023-03-22T11:38:25;97220.13;;;18.93;42.35
967;BME280;56108;48.730;9.304;2023-03-22T11:40:36;97220.47;;;18.98;41.82
967;BME280;56108;48.730;9.304;2023-03-22T11:43:02;97220.13;;;19.26;42.50
967;BME280;56108;48.730;9.304;2023-03-22T11:45:24;97211.66;;;19.45;41.79
967;BME280;56108;48.730;9.304;2023-03-22T11:47:36;97213.16;;;19.56;40.89
967;BME280;56108;48.730;9.304;2023-03-22T11:49:46;97205.69;;;19.83;40.87
967;BME280;56108;48.730;9.304;2023-03-22T11:51:55;97210.50;;;20.03;39.15
967;BME280;56108;48.730;9.304;2023-03-22T11:54:19;97211.41;;;19.88;39.12
967;BME280;56108;48.730;9.304;2023-03-22T11:56:30;97203.09;;;20.05;40.18
967;BME280;56108;48.730;9.304;2023-03-22T11:58:53;97209.97;;;20.16;38.78
967;BME280;56108;48.730;9.304;2023-03-22T12:01:07;97201.03;;;20.07;38.34
967;BME280;56108;48.730;9.304;2023-03-22T12:03:20;97200.84;;;20.40;38.79
967;BME280;56108;48.730;9.304;2023-03-22T12:05:31;97192.59;;;20.42;38.33
967;BME280;56108;48.730;9.304;2023-03-22T12:07:40;97197.22;;;20.25;38.66
967;BME280;56108;48.730;9.304;2023-03-22T12:09:51;97182.41;;;19.81;39.26
967;BME280;56108;48.730;9.304;2023-03-22T12:12:04;97178.56;;;19.76;38.20
967;BME280;56108;48.730;9.304;2023-03-22T12:14:18;97178.94;;;19.65;39.42
967;BME280;56108;48.730;9.304;2023-03-22T12:16:35;97178.69;;;19.83;38.23